• Join FlightAware (Why Join?)
  • Login
  • US Flag 
05:59PM EDT


 

Airport Tracker/Info


-or-


 

Live Flight TrackerFlight Track Log ✈ UAL906 ✈ 28-Apr-2013 ✈ KORD - EDDM / MUC

Flight Track Log - Related Links

Times and Time Zones

All times are in EDT time to prevent confusion due to time zone crossing. See the UAL906 flight status page for this flight to view local times or setup timezone preferences in your user account.

Time Position Orientation Groundspeed Altitude Reporting Facility
EDT Latitude Longitude Course Direction KTS MPH feet Rate Location/Type
06:58PM 41.9850 -87.9120 143° Southeast 169 194 1,300  Level FlightAware
06:58PM 41.9790 -87.9000 124° Southeast 180 207 1,700 1,680 Climbing FlightAware
06:58PM 41.9770 -87.8880 103° East 183 211 2,000 1,500 Climbing FlightAware
06:59PM 41.9720 -87.8510 100° East 219 252 2,700 1,560 Climbing FlightAware
06:59PM 41.9700 -87.8230 95° East 237 273 3,300 1,920 Climbing FlightAware
07:00PM 41.9700 -87.7740 90° East 265 305 4,300 2,400 Climbing FlightAware
07:00PM 41.9740 -87.7330 83° East 266 306 5,500 2,820 Climbing FlightAware
07:00PM 41.9850 -87.7130 53° Northeast 267 307 6,200 2,580 Climbing FlightAware
07:01PM 42.0010 -87.7020 27° Northeast 266 306 6,800 2,160 Climbing FlightAware
07:01PM 42.0190 -87.7020 360° North 274 315 7,300 2,400 Climbing FlightAware
07:01PM 42.0310 -87.7080 340° North 276 318 7,800 3,300 Climbing FlightAware
07:01PM 42.0630 -87.7350 328° Northwest 268 308 9,500 2,880 Climbing FlightAware
07:02PM 42.1000 -87.7500 343° North 277 319 10,700 2,160 Climbing FlightAware
07:03PM 42.1410 -87.7500 360° North 287 330 11,900 1,920 Climbing FlightAware
07:03PM 42.1730 -87.7490 North 304 350 12,500 1,320 Climbing FlightAware
07:03PM 42.2140 -87.7490 360° North 334 384 13,000 1,620 Climbing FlightAware
07:04PM 42.2980 -87.7460 North 357 411 14,700 1,860 Climbing FlightAware
07:05PM 42.3750 -87.7340 North 378 435 16,000 1,620 Climbing FlightAware
07:06PM 42.4440 -87.7240 North 398 458 17,000 2,040 Climbing FlightAware
07:06PM 42.5280 -87.7120 North 400 460 18,900 2,220 Climbing FlightAware
07:07PM 42.6040 -87.7010 North 408 470 20,200 1,860 Climbing FlightAware
07:08PM 42.6900 -87.6890 North 416 479 21,600 1,740 Climbing FlightAware
07:08PM 42.7670 -87.6770 North 423 487 22,700 1,440 Climbing FlightAware
07:09PM 42.8210 -87.6630 11° North 432 497 23,300 1,440 Climbing FlightAware
07:09PM 42.8500 -87.6400 30° Northeast 436 502 23,800 840 Climbing FlightAware
07:10PM 42.8990 -87.5800 42° Northeast 438 504 24,000 1,380 Climbing FlightAware
07:11PM 42.9590 -87.4780 51° Northeast 450 518 25,700 1,740 Climbing FlightAware
07:11PM 43.0100 -87.3980 49° Northeast 457 526 26,500 540 Climbing FlightAware
07:12PM 43.0680 -87.3070 49° Northeast 457 526 26,500 1,620 Level FlightAware
07:13PM 43.1260 -87.2150 49° Northeast 458 527 28,700 2,580 Climbing FlightAware
07:13PM 43.1940 -87.1070 49° Northeast 452 520 30,200 1,020 Climbing FlightAware
07:14PM 43.2380 -87.0370 49° Northeast 450 518 30,200 1,440 Level FlightAware
07:15PM 43.3230 -86.9010 49° Northeast 444 511 32,500 1,560 Climbing FlightAware
07:16PM 43.3850 -86.8010 50° Northeast 446 513 33,000 300 Climbing FlightAware
07:16PM 43.4390 -86.7140 49° Northeast 446 513 33,000  Level FlightAware
07:17PM 43.4960 -86.6210 50° Northeast 444 511 33,000  Level FlightAware
07:18PM 43.5500 -86.5350 49° Northeast 444 511 33,000  Level FlightAware
07:18PM 43.6030 -86.4470 50° Northeast 442 509 33,000  Level FlightAware
07:19PM 43.6630 -86.3490 50° Northeast 442 509 33,000  Level FlightAware
07:20PM 43.7160 -86.2620 50° Northeast 441 507 33,000  Level FlightAware
07:21PM 43.7660 -86.1790 50° Northeast 440 506 33,000  Level FlightAware
07:21PM 43.8270 -86.0770 50° Northeast 442 509 33,000  Level FlightAware
07:22PM 43.8790 -85.9900 50° Northeast 443 510 33,000  Level FlightAware
07:23PM 43.9380 -85.8930 50° Northeast 445 512 33,000  Level FlightAware
07:23PM 43.9820 -85.7970 57° Northeast 452 520 33,000  Level FlightAware
07:24PM 44.0190 -85.6930 64° Northeast 455 524 33,000  Level FlightAware
07:25PM 44.0590 -85.5760 65° Northeast 455 524 33,000  Level FlightAware
07:25PM 44.0980 -85.4660 64° Northeast 455 524 33,000  Level FlightAware
07:26PM 44.1380 -85.3500 64° Northeast 454 522 33,000  Level FlightAware
07:27PM 44.1730 -85.2480 64° Northeast 454 522 33,000  Level FlightAware
07:28PM 44.2100 -85.1390 65° Northeast 454 522 33,000  Level FlightAware
07:28PM 44.2510 -85.0200 64° Northeast 453 521 33,000  Level FlightAware
07:29PM 44.2860 -84.9130 65° Northeast 453 521 33,000  Level FlightAware
07:30PM 44.3250 -84.7980 65° Northeast 451 519 33,000  Level FlightAware
07:30PM 44.3600 -84.6920 65° Northeast 451 519 33,000  Level FlightAware
07:31PM 44.3950 -84.5870 65° Northeast 451 519 33,000  Level FlightAware
07:32PM 44.4360 -84.4630 65° Northeast 450 518 33,000  Level FlightAware
07:32PM 44.4690 -84.3590 66° East 450 518 33,000  Level FlightAware
07:33PM 44.5080 -84.2410 65° Northeast 450 518 33,000  Level FlightAware
07:34PM 44.5420 -84.1360 66° East 449 517 33,000  Level FlightAware
07:35PM 44.5760 -84.0290 66° East 449 517 33,000  Level FlightAware
07:35PM 44.6100 -83.9240 66° East 448 516 33,000  Level FlightAware
07:36PM 44.6590 -83.7690 66° East 448 516 33,000  Level FlightAware
07:37PM 44.6950 -83.6570 66° East 448 516 33,000  Level FlightAware
07:38PM 44.7320 -83.5410 66° East 450 518 33,000  Level FlightAware
07:38PM 44.7670 -83.4290 66° East 453 521 33,000  Level FlightAware
07:39PM 44.8040 -83.3150 65° Northeast 457 526 33,000  Level FlightAware
07:40PM 44.8470 -83.2060 61° Northeast 458 527 33,000  Level FlightAware
07:40PM 44.8920 -83.1040 58° Northeast 461 531 33,000  Level FlightAware
07:41PM 44.9440 -82.9860 58° Northeast 465 535 33,000  Level FlightAware
07:42PM 44.9890 -82.8850 58° Northeast 469 540 33,000  Level FlightAware
07:43PM 45.0390 -82.7730 58° Northeast 472 543 33,000  Level FlightAware
07:43PM 45.0840 -82.6700 58° Northeast 474 545 33,000  Level FlightAware
07:44PM 45.1320 -82.5590 58° Northeast 475 547 33,000  Level FlightAware
07:45PM 45.1840 -82.4400 58° Northeast 477 549 33,000  Level FlightAware
07:45PM 45.2290 -82.3350 59° Northeast 478 550 33,000  Level FlightAware
07:46PM 45.2800 -82.2160 59° Northeast 480 552 33,000  Level FlightAware
07:47PM 45.3280 -82.1050 58° Northeast 480 552 33,000  Level FlightAware
07:47PM 45.3780 -81.9860 59° Northeast 480 552 33,000  Level FlightAware
07:48PM 45.4250 -81.8780 58° Northeast 480 552 33,000  Level FlightAware
07:49PM 45.4710 -81.7700 59° Northeast 480 552 33,000  Level FlightAware
07:50PM 45.5180 -81.6570 59° Northeast 479 551 33,000  Level FlightAware
07:50PM 45.5570 -81.5680 58° Northeast 479 551 33,000  Level FlightAware
07:51PM 45.6190 -81.4170 60° Northeast 477 549 33,000  Level FlightAware
07:52PM 45.6540 -81.3350 59° Northeast 476 548 33,000  Level FlightAware
07:53PM 45.7230 -81.1690 59° Northeast 476 548 33,000  Level FlightAware
07:53PM 45.7720 -81.0520 59° Northeast 476 548 33,000  Level FlightAware
07:54PM 45.8290 -80.9130 59° Northeast 475 547 33,000  Level FlightAware
07:55PM 45.8790 -80.7910 59° Northeast 474 545 33,000  Level FlightAware
07:56PM 45.9270 -80.6750 59° Northeast 475 547 33,000  Level FlightAware
07:56PM 45.9740 -80.5600 60° Northeast 476 548 33,000  Level FlightAware
07:57PM 46.0240 -80.4390 59° Northeast 477 549 33,000  Level FlightAware
07:58PM 46.0680 -80.3300 60° Northeast 478 550 33,000  Level FlightAware
07:58PM 46.1140 -80.2160 60° Northeast 479 551 33,000  Level FlightAware
07:59PM 46.1720 -80.0760 59° Northeast 479 551 33,000  Level FlightAware
08:00PM 46.2220 -79.9510 60° Northeast 481 554 33,000  Level FlightAware
08:01PM 46.2700 -79.8310 60° Northeast 480 552 33,000  Level FlightAware
08:01PM 46.3200 -79.7060 60° Northeast 480 552 33,000  Level FlightAware
08:02PM 46.3560 -79.6150 60° Northeast 481 554 33,000  Level FlightAware
08:03PM 46.4260 -79.4410 60° Northeast 480 552 33,000  Level FlightAware
08:04PM 46.4740 -79.3180 60° Northeast 479 551 33,000  Level FlightAware
08:04PM 46.5180 -79.2080 60° Northeast 477 549 33,000  Level FlightAware
08:05PM 46.5620 -79.0960 60° Northeast 476 548 33,000  Level FlightAware
08:06PM 46.6090 -78.9750 60° Northeast 476 548 33,000  Level FlightAware
08:07PM 46.6540 -78.8600 60° Northeast 474 545 33,000  Level FlightAware
08:08PM 46.7270 -78.6740 60° Northeast 472 543 33,000  Level FlightAware
08:08PM 46.7750 -78.5490 61° Northeast 472 543 33,000  Level FlightAware
08:09PM 46.8110 -78.4590 60° Northeast 472 543 33,000  Level FlightAware
08:10PM 46.8480 -78.3650 60° Northeast 472 543 33,000  Level FlightAware
08:11PM 46.8940 -78.2480 60° Northeast 472 543 33,000  Level FlightAware
08:11PM 46.9310 -78.1540 60° Northeast 472 543 33,000  Level FlightAware
08:12PM 46.9680 -78.0590 60° Northeast 472 543 33,000  Level FlightAware
08:13PM 47.0050 -77.9650 60° Northeast 472 543 33,000  Level FlightAware
08:13PM 47.0420 -77.8710 60° Northeast 472 543 33,000  Level FlightAware
08:14PM 47.0890 -77.7530 60° Northeast 472 543 33,000  Level FlightAware
08:15PM 47.1260 -77.6580 60° Northeast 472 543 33,000  Level FlightAware
08:15PM 47.1630 -77.5640 60° Northeast 472 543 33,000  Level FlightAware
08:16PM 47.2000 -77.4690 60° Northeast 472 543 33,000  Level FlightAware
08:17PM 47.2370 -77.3750 60° Northeast 472 543 33,000  Level FlightAware
08:18PM 47.2840 -77.2560 60° Northeast 472 543 33,000  Level FlightAware
08:18PM 47.3210 -77.1610 60° Northeast 472 543 33,000  Level FlightAware
08:19PM 47.4167 -76.8167 60° Northeast 480 552 33,000  Level Montreal Center
08:20PM 47.4667 -76.6333 68° East 480 552 33,000  Level Montreal Center
08:21PM 47.5333 -76.4667 59° Northeast 480 552 33,000  Level Montreal Center
08:22PM 47.6000 -76.2667 64° Northeast 480 552 33,000  Level Montreal Center
08:23PM 47.6667 -76.0833 62° Northeast 480 552 33,000  Level Montreal Center
08:24PM 47.7167 -75.9167 66° East 480 552 33,000  Level Montreal Center
08:25PM 47.7833 -75.7500 59° Northeast 480 552 33,000  Level Montreal Center
08:26PM 47.8333 -75.5667 68° East 480 552 33,000  Level Montreal Center
08:27PM 47.9000 -75.3833 61° Northeast 480 552 33,000  Level Montreal Center
08:28PM 47.9667 -75.2167 59° Northeast 480 552 33,000  Level Montreal Center
08:33PM 48.3080 -74.2970 59° Northeast 472 543 33,000  Level FlightAware
08:34PM 48.3610 -74.1380 63° Northeast 472 543 33,000  Level FlightAware
08:35PM 48.3950 -74.0380 63° Northeast 472 543 33,000 420 Level FlightAware
08:38PM 48.5940 -73.4150 64° Northeast 34,900 480 Climbing FlightAware
08:39PM 48.6310 -73.2970 65° Northeast 480 552 35,000 60 Climbing FlightAware
08:39PM 48.6640 -73.1930 64° Northeast 480 552 35,000  Level FlightAware
08:40PM 48.7050 -73.0670 64° Northeast 480 552 35,000  Level FlightAware
08:41PM 48.7470 -72.9270 65° Northeast 479 551 35,000  Level FlightAware
08:42PM 48.7940 -72.7730 65° Northeast 479 551 35,000  Level FlightAware
08:42PM 48.8290 -72.6580 65° Northeast 479 551 35,000  Level FlightAware
08:43PM 48.8840 -72.4800 65° Northeast 478 550 35,000  Level FlightAware
08:44PM 48.9230 -72.3520 65° Northeast 477 549 35,000  Level FlightAware
08:45PM 48.9600 -72.2270 66° East 476 548 35,000  Level FlightAware
08:45PM 48.9920 -72.1210 65° Northeast 476 548 35,000  Level FlightAware
08:47PM 49.1110 -71.7140 66° East 474 545 35,000  Level FlightAware
08:48PM 49.1440 -71.6020 66° East 474 545 35,000  Level FlightAware
08:49PM 49.1870 -71.4530 66° East 472 543 35,000  Level FlightAware
08:50PM 49.2350 -71.2880 66° East 472 543 35,000  Level FlightAware
08:50PM 49.2650 -71.1840 66° East 472 543 35,000  Level FlightAware
08:51PM 49.3020 -71.0500 67° East 472 543 35,000  Level FlightAware
08:52PM 49.3550 -70.8560 67° East 473 544 35,000  Level FlightAware
08:53PM 49.3850 -70.7500 66° East 472 543 35,000  Level FlightAware
08:53PM 49.4270 -70.5980 67° East 472 543 35,000  Level FlightAware
08:54PM 49.4630 -70.4680 67° East 473 544 35,000  Level FlightAware
08:55PM 49.5160 -70.2720 67° East 472 543 35,000  Level FlightAware
08:56PM 49.5450 -70.1670 67° East 472 543 35,000  Level FlightAware
08:57PM 49.5740 -70.0610 67° East 472 543 35,000  Level FlightAware
08:57PM 49.6030 -69.9560 67° East 472 543 35,000  Level FlightAware
08:58PM 49.6390 -69.8240 67° East 472 543 35,000  Level FlightAware
08:59PM 49.6680 -69.7190 67° East 472 543 35,000  Level FlightAware
08:59PM 49.6970 -69.6130 67° East 472 543 35,000  Level FlightAware
09:00PM 49.7260 -69.5070 67° East 472 543 35,000  Level FlightAware
09:01PM 49.7550 -69.4020 67° East 472 543 35,000  Level FlightAware
09:02PM 49.7910 -69.2690 67° East 472 543 35,000  Level FlightAware
09:02PM 49.8200 -69.1630 67° East 472 543 35,000  Level FlightAware
09:03PM 49.8490 -69.0570 67° East 472 543 35,000  Level FlightAware
09:04PM 49.8780 -68.9510 67° East 472 543 35,000  Level FlightAware
09:04PM 49.9070 -68.8450 67° East 472 543 35,000  Level FlightAware
09:05PM 49.9500 -68.4833 67° East 450 518 35,000  Level Montreal Center
09:06PM 50.0000 -68.2833 69° East 450 518 35,000  Level Montreal Center
09:07PM 50.0333 -68.1000 74° East 450 518 35,000  Level Montreal Center
09:08PM 50.0833 -67.9333 65° Northeast 450 518 35,000  Level Montreal Center
09:09PM 50.1333 -67.7333 69° East 450 518 35,000  Level Montreal Center
09:10PM 50.1667 -67.5833 71° East 450 518 35,000  Level Montreal Center
09:11PM 50.2167 -67.3833 69° East 450 518 35,000  Level Montreal Center
09:12PM 50.2667 -67.2167 65° Northeast 440 506 35,000  Level Montreal Center
09:13PM 50.3167 -67.0167 69° East 440 506 35,000  Level Montreal Center
09:14PM 50.3500 -66.8333 74° East 450 518 35,000  Level Montreal Center
09:15PM 50.4000 -66.6500 67° East 440 506 35,000  Level Montreal Center
09:16PM 50.4333 -66.4667 74° East 450 518 35,000  Level Montreal Center
09:17PM 50.4833 -66.3000 65° Northeast 450 518 35,000  Level Montreal Center
09:18PM 50.5167 -66.1000 75° East 450 518 35,000  Level Montreal Center
09:19PM 50.5667 -65.9000 68° East 450 518 35,000  Level Montreal Center
09:20PM 50.6167 -65.7333 65° Northeast 450 518 35,000  Level Montreal Center
09:20PM 50.6333 -65.6333 75° East 450 518 35,000  Level Gander Center
09:21PM 50.6833 -65.4500 67° East 450 518 35,000  Level Gander Center
09:22PM 50.7167 -65.2667 74° East 460 529 35,000  Level Gander Center
09:23PM 50.7667 -65.0667 68° East 460 529 35,000  Level Gander Center
09:24PM 50.8000 -64.8833 74° East 460 529 35,000  Level Gander Center
09:25PM 50.8333 -64.7000 74° East 460 529 35,000  Level Gander Center
09:26PM 50.8833 -64.4833 70° East 460 529 35,000  Level Gander Center
09:27PM 50.9167 -64.3000 74° East 450 518 35,000  Level Gander Center
09:28PM 50.9500 -64.1167 74° East 450 518 35,000  Level Gander Center
09:29PM 51.0000 -63.9333 67° East 450 518 35,000  Level Gander Center
09:30PM 51.0500 -63.7333 68° East 450 518 35,000  Level Gander Center
09:31PM 51.0833 -63.5500 74° East 450 518 35,000  Level Gander Center
09:32PM 51.1167 -63.3667 74° East 450 518 35,000  Level Gander Center
09:33PM 51.1500 -63.1833 74° East 460 529 35,000  Level Gander Center
09:34PM 51.2000 -62.9667 70° East 460 529 35,000  Level Gander Center
09:35PM 51.2333 -62.7833 74° East 450 518 35,000  Level Gander Center
09:36PM 51.2667 -62.5833 75° East 460 529 35,000  Level Gander Center
09:37PM 51.3000 -62.3833 75° East 460 529 35,000  Level Gander Center
09:38PM 51.3500 -62.1500 73° East 450 518 35,000  Level Moncton Center
09:40PM 51.3821 -61.9718 73° East  Level FlightAware Approximate
09:40PM 51.4000 -61.8500 75° East 460 529 35,000  Level Gander Center
09:40PM 51.4167 -61.7667 72° East 460 529 35,000  Level Moncton Center
09:41PM 51.4333 -61.6000 81° East 450 518 35,000  Level Gander Center
09:42PM 51.4833 -61.4167 66° East 460 529 35,000  Level Gander Center
09:43PM 51.5167 -61.2333 74° East 450 518 35,000  Level Gander Center
09:44PM 51.5500 -61.0167 76° East 460 529 35,000  Level Gander Center
09:45PM 51.5833 -60.8167 75° East 450 518 35,000  Level Gander Center
09:46PM 51.6167 -60.6167 75° East 460 529 35,000  Level Gander Center
09:47PM 51.6500 -60.4167 75° East 460 529 35,000  Level Gander Center
09:48PM 51.6833 -60.2000 76° East 460 529 35,000  Level Gander Center
09:49PM 51.7167 -60.0167 74° East 460 529 35,000  Level Gander Center
09:50PM 51.7667 -59.8167 68° East 460 529 35,000  Level Gander Center
09:51PM 51.7833 -59.6667 80° East 460 529 35,000  Level Gander Center
09:51PM 51.7833 -59.5833 90° East 460 529 35,000  Level Moncton Center
09:52PM 51.8333 -59.3667 69° East 460 529 35,000  Level Moncton Center
09:53PM 51.8500 -59.2167 80° East 460 529 35,000  Level Gander Center
09:54PM 51.9000 -59.0333 66° East 460 529 35,000 -420 Level Gander Center
09:55PM 51.9500 -58.8167 69° East 460 529 34,200 -540 Descending Gander Center
09:56PM 52.0000 -58.6500 64° Northeast 470 541 34,000 -120 Descending Gander Center
09:57PM 52.0500 -58.4333 69° East 460 529 34,000  Level Gander Center
09:58PM 52.1000 -58.2333 68° East 470 541 34,000  Level Gander Center
09:59PM 52.1500 -58.0333 68° East 470 541 34,000  Level Gander Center
10:00PM 52.2167 -57.8500 59° Northeast 480 552 34,000  Level Gander Center
10:01PM 52.2500 -57.6500 75° East 480 552 34,000  Level Gander Center
10:02PM 52.3000 -57.4333 69° East 480 552 34,000  Level Gander Center
10:03PM 52.3500 -57.2333 68° East 480 552 34,000  Level Gander Center
10:04PM 52.3833 -57.0833 70° East 480 552 34,000  Level Gander Center
10:04PM 52.4167 -56.9833 61° Northeast 480 552 34,000  Level Moncton Center
10:05PM 52.4667 -56.7833 68° East 480 552 34,000  Level Moncton Center
10:06PM 52.5000 -56.6167 72° East 480 552 34,000  Level Gander Center
10:07PM 52.5500 -56.4167 68° East 480 552 34,000  Level Gander Center
10:08PM 52.6000 -56.2167 68° East 480 552 34,000  Level Gander Center
10:09PM 52.6333 -56.0500 72° East 480 552 34,000  Level Gander Center
10:10PM 52.6667 -55.8500 75° East 480 552 34,000  Level Gander Center
10:11PM 52.7333 -55.6500 61° Northeast 480 552 34,000  Level Gander Center
10:12PM 52.7667 -55.4500 75° East 480 552 34,000  Level Gander Center
10:12PM 52.7833 -55.3333 77° East 490 564 34,000  Level Moncton Center
10:13PM 52.8333 -55.1333 67° East 490 564 34,000  Level Moncton Center
10:14PM 52.8833 -54.9667 64° Northeast 490 564 34,000  Level Gander Center
10:15PM 52.9167 -54.7667 74° East 490 564 34,000  Level Gander Center
10:16PM 52.9500 -54.6167 70° East 490 564 34,000  Level Gander Center
10:17PM 53.0000 -54.4167 67° East 490 564 34,000  Level Gander Center
10:18PM 53.0333 -54.1833 77° East 490 564 34,000  Level Gander Center
10:19PM 53.0833 -53.9833 67° East 500 575 34,000  Level Gander Center
10:20PM 53.1333 -53.7500 70° East 500 575 34,000  Level Gander Center
10:21PM 53.1833 -53.5500 67° East 500 575 34,000  Level Gander Center
10:22PM 53.2333 -53.3167 70° East 510 587 34,000  Level Gander Center
10:23PM 53.2833 -53.1000 69° East 500 575 34,000  Level Gander Center
10:24PM 53.3500 -52.7833 70° East 500 575 34,000  Level Gander Center
10:25PM 53.4000 -52.5500 70° East 500 575 34,000  Level Gander Center
10:26PM 53.4500 -52.3333 69° East 510 587 34,000  Level Gander Center
10:27PM 53.4833 -52.1333 74° East 500 575 34,000  Level Gander Center
10:28PM 53.5333 -51.9000 70° East 500 575 34,000  Level Gander Center
10:29PM 53.6000 -51.6833 63° Northeast 510 587 34,000  Level Gander Center
10:30PM 53.6167 -51.5333 79° East 510 587 34,000  Level Gander Center
10:31PM 53.6667 -51.3333 67° East 500 575 34,000  Level Gander Center
10:32PM 53.7333 -51.1167 62° Northeast 510 587 34,000  Level Gander Center
10:33PM 53.7667 -50.8833 76° East 500 575 34,000  Level Gander Center
10:34PM 53.8333 -50.6000 68° East 500 575 34,000  Level Gander Center
10:35PM 53.8667 -50.3333 78° East 500 575 34,000  Level Gander Center
10:36PM 53.9167 -50.1500 65° Northeast 510 587 34,000  Level Gander Center
10:37PM 53.9500 -49.9500 74° East 510 587 34,000  Level Gander Center
10:39PM 53.9927 -49.6862 75° East  Level FlightAware Approximate
10:46PM 54.2270 -48.1579 75° East  Level FlightAware Approximate
10:47PM 54.2589 -47.9382 76° East  Level FlightAware Approximate
10:48PM 54.2903 -47.7182 76° East  Level FlightAware Approximate
10:49PM 54.3189 -47.4953 78° East  Level FlightAware Approximate
10:50PM 54.3456 -47.2731 78° East  Level FlightAware Approximate
10:51PM 54.3719 -47.0506 78° East  Level FlightAware Approximate
10:52PM 54.3979 -46.8278 79° East  Level FlightAware Approximate
10:53PM 54.4234 -46.6048 79° East  Level FlightAware Approximate
10:54PM 54.4485 -46.3815 79° East  Level FlightAware Approximate
10:55PM 54.4732 -46.1579 79° East  Level FlightAware Approximate
10:56PM 54.4975 -45.9340 79° East  Level FlightAware Approximate
10:57PM 54.5213 -45.7099 80° East  Level FlightAware Approximate
10:58PM 54.5448 -45.4855 80° East  Level FlightAware Approximate
10:59PM 54.5678 -45.2609 80° East  Level FlightAware Approximate
11:00PM 54.5904 -45.0360 80° East  Level FlightAware Approximate
11:01PM 54.6126 -44.8108 80° East  Level FlightAware Approximate
11:02PM 54.6344 -44.5855 80° East  Level FlightAware Approximate
11:03PM 54.6557 -44.3599 81° East  Level FlightAware Approximate
11:04PM 54.6767 -44.1340 81° East  Level FlightAware Approximate
11:05PM 54.6972 -43.9079 81° East  Level FlightAware Approximate
11:06PM 54.7173 -43.6816 81° East  Level FlightAware Approximate
11:07PM 54.7370 -43.4551 81° East  Level FlightAware Approximate
11:08PM 54.7562 -43.2283 82° East  Level FlightAware Approximate
11:09PM 54.7751 -43.0014 82° East  Level FlightAware Approximate
11:10PM 54.7942 -42.7744 81° East  Level FlightAware Approximate
11:11PM 54.8135 -42.5473 82° East  Level FlightAware Approximate
11:12PM 54.8324 -42.3200 82° East  Level FlightAware Approximate
11:13PM 54.8508 -42.0926 82° East  Level FlightAware Approximate
11:14PM 54.8689 -41.8649 82° East  Level FlightAware Approximate
11:15PM 54.8865 -41.6370 82° East  Level FlightAware Approximate
11:16PM 54.9036 -41.4089 82° East  Level FlightAware Approximate
11:17PM 54.9204 -41.1806 83° East  Level FlightAware Approximate
11:18PM 54.9367 -40.9521 83° East  Level FlightAware Approximate
11:19PM 54.9526 -40.7235 83° East  Level FlightAware Approximate
11:20PM 54.9681 -40.4947 83° East  Level FlightAware Approximate
11:21PM 54.9831 -40.2652 83° East  Level FlightAware Approximate
11:22PM 54.9978 -40.0356 84° East  Level FlightAware Approximate
11:23PM 55.0270 -39.8103 76° East  Level FlightAware Approximate
11:24PM 55.0585 -39.5856 76° East  Level FlightAware Approximate
11:25PM 55.0896 -39.3605 76° East  Level FlightAware Approximate
11:26PM 55.1202 -39.1351 77° East  Level FlightAware Approximate
11:27PM 55.1505 -38.9094 77° East  Level FlightAware Approximate
11:28PM 55.1803 -38.6833 77° East  Level FlightAware Approximate
11:29PM 55.2098 -38.4568 77° East  Level FlightAware Approximate
11:30PM 55.2388 -38.2301 77° East  Level FlightAware Approximate
11:31PM 55.2673 -38.0030 77° East  Level FlightAware Approximate
11:32PM 55.2955 -37.7756 78° East  Level FlightAware Approximate
11:33PM 55.3232 -37.5478 78° East  Level FlightAware Approximate
11:34PM 55.3506 -37.3198 78° East  Level FlightAware Approximate
11:35PM 55.3773 -37.0913 78° East  Level FlightAware Approximate
11:36PM 55.4034 -36.8625 79° East  Level FlightAware Approximate
11:37PM 55.4291 -36.6334 79° East  Level FlightAware Approximate
11:38PM 55.4543 -36.4040 79° East  Level FlightAware Approximate
11:39PM 55.4791 -36.1743 79° East  Level FlightAware Approximate
11:40PM 55.5035 -35.9444 79° East  Level FlightAware Approximate
11:41PM 55.5274 -35.7141 79° East  Level FlightAware Approximate
11:42PM 55.5510 -35.4836 80° East  Level FlightAware Approximate
11:43PM 55.5741 -35.2527 80° East  Level FlightAware Approximate
11:44PM 55.5967 -35.0217 80° East  Level FlightAware Approximate
11:45PM 55.6189 -34.7903 80° East  Level FlightAware Approximate
11:46PM 55.6407 -34.5587 80° East  Level FlightAware Approximate
11:47PM 55.6620 -34.3268 81° East  Level FlightAware Approximate
11:48PM 55.6830 -34.0947 81° East  Level FlightAware Approximate
11:49PM 55.7034 -33.8624 81° East  Level FlightAware Approximate
11:50PM 55.7235 -33.6298 81° East  Level FlightAware Approximate
11:51PM 55.7430 -33.3969 81° East  Level FlightAware Approximate
11:52PM 55.7622 -33.1639 82° East  Level FlightAware Approximate
11:53PM 55.7809 -32.9306 82° East  Level FlightAware Approximate
11:54PM 55.8008 -32.6975 81° East  Level FlightAware Approximate
11:55PM 55.8204 -32.4642 81° East  Level FlightAware Approximate
11:56PM 55.8396 -32.2307 82° East  Level FlightAware Approximate
11:57PM 55.8584 -31.9969 82° East  Level FlightAware Approximate
11:58PM 55.8767 -31.7630 82° East  Level FlightAware Approximate
11:59PM 55.8946 -31.5288 82° East  Level FlightAware Approximate
12:00AM 55.9120 -31.2944 82° East  Level FlightAware Approximate
12:01AM 55.9290 -31.0597 83° East  Level FlightAware Approximate
12:02AM 55.9455 -30.8249 83° East  Level FlightAware Approximate
12:03AM 55.9616 -30.5899 83° East  Level FlightAware Approximate
12:04AM 55.9773 -30.3547 83° East  Level FlightAware Approximate
12:05AM 55.9925 -30.1193 83° East  Level FlightAware Approximate
12:06AM 55.9930 -29.8838 96° East  Level FlightAware Approximate
12:07AM 55.9786 -29.6482 96° East  Level FlightAware Approximate
12:08AM 55.9638 -29.4128 96° East  Level FlightAware Approximate
12:09AM 55.9484 -29.1776 97° East  Level FlightAware Approximate
12:10AM 55.9327 -28.9426 97° East  Level FlightAware Approximate
12:11AM 55.9165 -28.7078 97° East  Level FlightAware Approximate
12:12AM 55.8998 -28.4732 97° East  Level FlightAware Approximate
12:13AM 55.8827 -28.2388 97° East  Level FlightAware Approximate
12:14AM 55.8652 -28.0046 98° East  Level FlightAware Approximate
12:15AM 55.8472 -27.7707 98° East  Level FlightAware Approximate
12:16AM 55.8288 -27.5369 98° East  Level FlightAware Approximate
12:17AM 55.8099 -27.3034 98° East  Level FlightAware Approximate
12:18AM 55.7906 -27.0700 98° East  Level FlightAware Approximate
12:19AM 55.7708 -26.8370 98° East  Level FlightAware Approximate
12:20AM 55.7506 -26.6041 99° East  Level FlightAware Approximate
12:21AM 55.7300 -26.3715 99° East  Level FlightAware Approximate
12:22AM 55.7089 -26.1392 99° East  Level FlightAware Approximate
12:23AM 55.6874 -25.9071 99° East  Level FlightAware Approximate
12:24AM 55.6654 -25.6753 99° East  Level FlightAware Approximate
12:25AM 55.6430 -25.4437 100° East  Level FlightAware Approximate
12:26AM 55.6202 -25.2124 100° East  Level FlightAware Approximate
12:27AM 55.5970 -24.9814 100° East  Level FlightAware Approximate
12:28AM 55.5733 -24.7506 100° East  Level FlightAware Approximate
12:29AM 55.5491 -24.5202 100° East  Level FlightAware Approximate
12:30AM 55.5246 -24.2900 101° East  Level FlightAware Approximate
12:31AM 55.5003 -24.0598 100° East  Level FlightAware Approximate
12:32AM 55.4758 -23.8299 101° East  Level FlightAware Approximate
12:33AM 55.4510 -23.6002 101° East  Level FlightAware Approximate
12:34AM 55.4257 -23.3708 101° East  Level FlightAware Approximate
12:35AM 55.4000 -23.1418 101° East  Level FlightAware Approximate
12:36AM 55.3738 -22.9130 101° East  Level FlightAware Approximate
12:37AM 55.3473 -22.6845 101° East  Level FlightAware Approximate
12:38AM 55.3203 -22.4564 102° East  Level FlightAware Approximate
12:39AM 55.2928 -22.2285 102° East  Level FlightAware Approximate
12:40AM 55.2650 -22.0010 102° East  Level FlightAware Approximate
12:41AM 55.2367 -21.7738 102° East  Level FlightAware Approximate
12:42AM 55.2080 -21.5469 102° East  Level FlightAware Approximate
12:43AM 55.1789 -21.3204 103° East  Level FlightAware Approximate
12:44AM 55.1494 -21.0942 103° East  Level FlightAware Approximate
12:45AM 55.1194 -20.8683 103° East  Level FlightAware Approximate
12:46AM 55.0891 -20.6427 103° East  Level FlightAware Approximate
12:47AM 55.0583 -20.4175 103° East  Level FlightAware Approximate
12:48AM 55.0271 -20.1927 104° East  Level FlightAware Approximate
12:49AM 54.9960 -19.9680 102° East  Level FlightAware Approximate
12:50AM 54.9674 -19.7424 102° East  Level FlightAware Approximate
12:51AM 54.9385 -19.5172 103° East  Level FlightAware Approximate
12:52AM 54.9091 -19.2922 103° East  Level FlightAware Approximate
12:53AM 54.8793 -19.0676 103° East  Level FlightAware Approximate
12:54AM 54.8491 -18.8434 103° East  Level FlightAware Approximate
12:55AM 54.8185 -18.6195 103° East  Level FlightAware Approximate
12:56AM 54.7875 -18.3959 103° East  Level FlightAware Approximate
12:57AM 54.7560 -18.1726 104° East  Level FlightAware Approximate
12:58AM 54.7242 -17.9498 104° East  Level FlightAware Approximate
12:59AM 54.6920 -17.7272 104° East  Level FlightAware Approximate
01:00AM 54.6593 -17.5050 104° East  Level FlightAware Approximate
01:01AM 54.6262 -17.2832 104° East  Level FlightAware Approximate
01:02AM 54.5928 -17.0618 105° East  Level FlightAware Approximate
01:03AM 54.5598 -16.8402 104° East  Level FlightAware Approximate
01:04AM 54.5269 -16.6189 104° East  Level FlightAware Approximate
01:05AM 54.4936 -16.3979 104° East  Level FlightAware Approximate
01:05AM 53.8600 -13.6220 105° East 529 609 35,000  Level FlightAware
01:06AM 54.4599 -16.1773 105° East  Level FlightAware Approximate
01:07AM 54.4257 -15.9570 105° East  Level FlightAware Approximate
01:07AM 53.7790 -13.1460 106° East 535 616 35,000  Level FlightAware
01:08AM 53.7460 -12.9460 106° East 534 615 35,000  Level FlightAware
01:08AM 53.7150 -12.7630 106° East 532 612 35,000  Level FlightAware
01:09AM 53.6850 -12.5960 107° East 529 609 35,000  Level FlightAware
01:10AM 53.6550 -12.4230 106° East 530 610 35,000  Level FlightAware
01:10AM 53.6280 -12.2640 106° East 530 610 35,000  Level FlightAware
01:11AM 53.5970 -12.0850 106° East 530 610 35,000  Level FlightAware
01:12AM 53.5700 -11.9280 106° East 527 606 35,000  Level FlightAware
01:12AM 53.5410 -11.7710 107° East 529 609 35,000  Level FlightAware
01:13AM 53.5070 -11.5920 108° East 529 609 35,000  Level FlightAware
01:14AM 53.4800 -11.4580 109° East 529 609 35,000  Level FlightAware
01:15AM 53.4460 -11.2810 108° East 529 609 35,000  Level FlightAware
01:15AM 53.4110 -11.1080 109° East 527 606 35,000  Level FlightAware
01:16AM 53.3800 -10.9540 109° East 529 609 35,000  Level FlightAware
01:17AM 53.3430 -10.7810 110° East 528 608 35,000  Level FlightAware
01:17AM 53.3100 -10.6260 110° East 527 606 35,000  Level FlightAware
01:18AM 53.2670 -10.4220 109° East 525 604 35,000  Level FlightAware
01:19AM 53.2350 -10.2670 109° East 524 603 35,000  Level FlightAware
01:20AM 53.2030 -10.1140 109° East 527 606 35,000  Level FlightAware
01:20AM 53.1620 -9.9220 110° East 528 608 35,000  Level FlightAware
01:21AM 53.1340 -9.7880 109° East 528 608 35,000  Level FlightAware
01:22AM 53.0980 -9.6130 109° East 526 605 35,000  Level FlightAware
01:23AM 53.0630 -9.4440 109° East 526 605 35,000  Level FlightAware
01:23AM 53.0350 -9.3080 109° East 526 605 35,000  Level FlightAware
01:24AM 52.9990 -9.1370 109° East 529 609 35,000 -1,200 Level FlightAware
01:25AM 52.9466 -8.9879 109° East 460 529 33,400  Descending FlightAware UK
01:25AM 52.9650 -8.9830 109° East 529 609 35,000 300 Climbing FlightAware
01:25AM 52.9317 -8.9189 109° East 460 529 33,500 -2,700 Descending FlightAware UK
01:25AM 52.9166 -8.8499 110° East 460 529 33,500 3,720 Level FlightAware UK
01:25AM 52.9320 -8.8310 110° East 527 606 35,000  Climbing FlightAware
01:26AM 52.8960 -8.7582 110° East 460 529 33,500 -2,520 Descending FlightAware UK
01:26AM 52.8807 -8.6894 110° East 458 527 33,500 2,760 Level FlightAware UK
01:26AM 52.8890 -8.6430 110° East 526 605 35,000  Climbing FlightAware
01:26AM 52.8551 -8.5751 110° East 458 527 33,500 -2,700 Descending FlightAware UK
01:27AM 52.8396 -8.5065 111° Southeast 460 529 33,500 3,720 Level FlightAware UK
01:27AM 52.8540 -8.4880 111° Southeast 529 609 35,000  Climbing FlightAware
01:27AM 52.8183 -8.4151 111° Southeast 456 525 33,500 -2,520 Descending FlightAware UK
01:27AM 52.8021 -8.3461 111° Southeast 456 525 33,500 4,080 Level FlightAware UK
01:27AM 52.8180 -8.3410 111° Southeast 531 611 35,000 -300 Climbing FlightAware
01:28AM 52.7804 -8.2550 111° Southeast 458 527 33,400 -2,580 Descending FlightAware UK
01:28AM 52.7641 -8.1869 112° Southeast 460 529 33,400 3,840 Level FlightAware UK
01:28AM 52.7770 -8.1660 112° Southeast 530 610 35,000 240 Climbing FlightAware
01:28AM 52.7426 -8.0961 112° Southeast 458 527 33,500 -2,580 Descending FlightAware UK
01:29AM 52.7262 -8.0281 112° Southeast 458 527 33,500 3,900 Level FlightAware UK
01:29AM 52.7410 -8.0160 112° Southeast 531 611 35,000  Climbing FlightAware
01:29AM 52.7046 -7.9371 112° Southeast 458 527 33,500 -2,460 Descending FlightAware UK
01:29AM 52.6886 -7.8689 111° Southeast 456 525 33,500 3,420 Level FlightAware UK
01:30AM 52.7010 -7.8490 111° Southeast 531 611 35,000 -300 Climbing FlightAware
01:30AM 52.6674 -7.7779 111° Southeast 456 525 33,400 -2,880 Descending FlightAware UK
01:30AM 52.6516 -7.7096 111° Southeast 458 527 33,400 3,960 Level FlightAware UK
01:30AM 52.6660 -7.7010 111° Southeast 530 610 35,000  Climbing FlightAware
01:31AM 52.6308 -7.6185 111° Southeast 458 527 33,400 -2,700 Descending FlightAware UK
01:31AM 52.6152 -7.5502 111° Southeast 458 527 33,400 4,320 Level FlightAware UK
01:31AM 52.6300 -7.5470 111° Southeast 527 606 35,000  Climbing FlightAware
01:31AM 52.5945 -7.4593 111° Southeast 452 520 33,400 -2,400 Descending FlightAware UK
01:32AM 52.5790 -7.3912 110° East 452 520 33,500 3,840 Climbing FlightAware UK
01:32AM 52.5910 -7.3750 110° East 528 608 35,000  Climbing FlightAware
01:32AM 52.5583 -7.3003 110° East 456 525 33,500 -2,760 Descending FlightAware UK
01:32AM 52.5427 -7.2320 111° Southeast 460 529 33,400 3,900 Descending FlightAware UK
01:32AM 52.5570 -7.2270 111° Southeast 528 608 35,000  Climbing FlightAware
01:33AM 52.5217 -7.1405 111° Southeast 456 525 33,400 -2,460 Descending FlightAware UK
01:33AM 52.5061 -7.0724 110° East 456 525 33,500 3,660 Climbing FlightAware UK
01:33AM 52.5180 -7.0620 110° East 531 611 35,000 -300 Climbing FlightAware
01:33AM 52.4849 -6.9819 110° East 458 527 33,400 -2,880 Descending FlightAware UK
01:34AM 52.4686 -6.9142 112° Southeast 460 529 33,400 3,960 Level FlightAware UK
01:34AM 52.4820 -6.9090 112° Southeast 532 612 35,000  Climbing FlightAware
01:34AM 52.4468 -6.8240 112° Southeast 460 529 33,400 -2,700 Descending FlightAware UK
01:34AM 52.4303 -6.7563 112° Southeast 456 525 33,400 3,540 Level FlightAware UK
01:34AM 52.4430 -6.7510 112° Southeast 530 610 35,000  Climbing FlightAware
01:35AM 52.4084 -6.6661 112° Southeast 456 525 33,400 -2,940 Descending FlightAware UK
01:35AM 52.3919 -6.5984 112° Southeast 460 529 33,400 4,800 Level FlightAware UK
01:35AM 52.4070 -6.6050 112° Southeast 533 613 35,000  Climbing FlightAware
01:35AM 52.3753 -6.5309 112° Southeast 458 527 33,400 -2,880 Descending FlightAware UK
01:36AM 52.3585 -6.4635 112° Southeast 460 529 33,400 3,300 Level FlightAware UK
01:36AM 52.3650 -6.4360 112° Southeast 532 612 35,000  Climbing FlightAware
01:36AM 52.3306 -6.3513 112° Southeast 460 529 33,400 -2,640 Descending FlightAware UK
01:36AM 52.3138 -6.2840 112° Southeast 462 532 33,400 4,560 Level FlightAware UK
01:36AM 52.3270 -6.2830 112° Southeast 533 613 35,000 300 Climbing FlightAware
01:37AM 52.2968 -6.2160 112° Southeast 460 529 33,500 -2,760 Descending FlightAware UK
01:37AM 52.2800 -6.1486 112° Southeast 458 527 33,500 3,000 Level FlightAware UK
01:37AM 52.2860 -6.1200 112° Southeast 534 615 35,000 -240 Climbing FlightAware
01:38AM 52.2548 -6.0344 112° Southeast 460 529 33,400 -2,700 Descending FlightAware UK
01:38AM 52.2420 -5.9651 107° East 458 527 33,400 4,320 Level FlightAware UK
01:38AM 52.2560 -5.9650 107° East 531 611 35,000  Climbing FlightAware
01:38AM 52.2281 -5.8718 107° East 464 534 33,400 -2,580 Descending FlightAware UK
01:39AM 52.2188 -5.8014 102° East 462 532 33,400 3,840 Level FlightAware UK
01:39AM 52.2300 -5.7850 102° East 530 610 35,000 240 Climbing FlightAware
01:39AM 52.2059 -5.7078 102° East 460 529 33,500 -2,580 Descending FlightAware UK
01:39AM 52.1961 -5.6376 103° East 464 534 33,500 3,900 Level FlightAware UK
01:39AM 52.2080 -5.6290 103° East 530 610 35,000 -300 Climbing FlightAware
01:40AM 52.1831 -5.5440 103° East 462 532 33,400 -2,640 Descending FlightAware UK
01:40AM 52.1731 -5.4740 103° East 462 532 33,400 3,660 Level FlightAware UK
01:40AM 52.1840 -5.4590 103° East 529 609 35,000 240 Climbing FlightAware
01:40AM 52.1597 -5.3807 103° East 464 534 33,500 -2,880 Descending FlightAware UK
01:41AM 52.1497 -5.3108 103° East 464 534 33,400 3,720 Descending FlightAware UK
01:41AM 52.1620 -5.3060 103° East 529 609 35,000  Climbing FlightAware
01:41AM 52.1365 -5.2176 103° East 462 532 33,400 -2,700 Descending FlightAware UK
01:41AM 52.1265 -5.1478 103° East 464 534 33,400 4,320 Level FlightAware UK
01:41AM 52.1400 -5.1520 103° East 528 608 35,000  Climbing FlightAware
01:42AM 52.1129 -5.0542 103° East 462 532 33,400 -2,580 Descending FlightAware UK
01:42AM 52.1030 -4.9847 103° East 464 534 33,400 3,840 Level FlightAware UK
01:42AM 52.1140 -4.9730 103° East 527 606 35,000  Climbing FlightAware
01:42AM 52.0897 -4.8922 103° East 464 534 33,400 -2,760 Descending FlightAware UK
01:43AM 52.0795 -4.8230 103° East 466 536 33,400 4,140 Level FlightAware UK
01:43AM 52.0920 -4.8190 103° East 525 604 35,000  Climbing FlightAware
01:43AM 52.0660 -4.7310 103° East 468 539 33,400 -2,640 Descending FlightAware UK
01:43AM 52.0559 -4.6622 103° East 466 536 33,400 4,560 Level FlightAware UK
01:43AM 52.0690 -4.6660 103° East 523 602 35,000 180 Climbing FlightAware
01:44AM 52.0390 -4.5480 103° East 464 534 33,500  Descending FlightAware UK
01:44AM 52.0440 -4.4980 103° East 520 598 35,000 -180 Climbing FlightAware
01:45AM 52.0186 -4.4115 103° East 460 529 33,400 -2,640 Descending FlightAware UK
01:45AM 52.0084 -4.3427 104° East 460 529 33,400 3,840 Level FlightAware UK
01:45AM 52.0183 -4.3267 104° East 520 598 35,000  Climbing FlightAware ADS-B
01:45AM 51.9948 -4.2528 104° East 458 527 33,400  Descending FlightAware UK
01:45AM 52.0011 -4.2127 104° East 519 597 35,000  Climbing FlightAware ADS-B
01:46AM 51.9775 -4.1391 104° East 460 529 33,400  Descending FlightAware UK
01:46AM 51.9830 -4.0942 104° East 517 595 35,000  Climbing FlightAware ADS-B
01:46AM 51.9602 -4.0264 104° East 460 529 33,400  Descending FlightAware UK
01:46AM 51.9650 -3.9777 104° East 516 594 35,000  Climbing FlightAware ADS-B
01:47AM 51.9393 -3.8917 104° East 460 529 33,400  Descending FlightAware UK
01:47AM 51.9441 -3.8433 104° East 515 593 35,000 120 Climbing FlightAware ADS-B
01:47AM 51.9184 -3.7577 104° East 456 525 33,500  Descending FlightAware UK
01:48AM 51.9260 -3.7269 104° East 515 593 35,000 -240 Climbing FlightAware ADS-B
01:48AM 51.9008 -3.6455 104° East 454 522 33,400  Descending FlightAware UK
01:48AM 51.9083 -3.6151 104° East 515 593 35,000  Climbing FlightAware ADS-B
01:48AM 51.8832 -3.5347 104° East 452 520 33,400  Descending FlightAware UK
01:49AM 51.8904 -3.5023 104° East 515 593 35,000  Climbing FlightAware ADS-B
01:49AM 51.8652 -3.4225 104° East 452 520 33,400  Descending FlightAware UK
01:49AM 51.8698 -3.3734 104° East 515 593 35,000  Climbing FlightAware ADS-B
01:49AM 51.8473 -3.3111 104° East 448 516 33,400  Descending FlightAware UK
01:50AM 51.8490 -3.2430 104° East 516 594 35,000 2,040 Climbing FlightAware
01:50AM 51.8328 -3.1445 105° East 517 595 35,000 -2,100 Level FlightAware ADS-B
01:51AM 51.8074 -3.0651 105° East 448 516 33,500  Descending FlightAware UK
01:51AM 51.8140 -3.0278 105° East 520 598 35,000  Climbing FlightAware ADS-B
01:51AM 51.7894 -2.9533 105° East 452 520 33,500  Descending FlightAware UK
01:51AM 51.7956 -2.9127 105° East 520 598 35,000 -180 Climbing FlightAware ADS-B
01:52AM 51.7674 -2.8181 105° East 454 522 33,400  Descending FlightAware UK
01:52AM 51.7768 -2.7997 105° East 519 597 35,000 240 Climbing FlightAware ADS-B
01:52AM 51.7526 -2.7288 105° East 462 532 33,500  Descending FlightAware UK
01:52AM 51.7584 -2.6873 105° East 521 600 35,000  Climbing FlightAware ADS-B
01:53AM 51.7340 -2.6170 105° East 458 527 33,500  Descending FlightAware UK
01:53AM 51.7393 -2.5740 105° East 521 600 35,000 -240 Climbing FlightAware ADS-B
01:53AM 51.7149 -2.5045 105° East 462 532 33,400  Descending FlightAware UK
01:53AM 51.7204 -2.4613 105° East 522 601 35,000  Climbing FlightAware ADS-B
01:54AM 51.6960 -2.3927 105° East 460 529 33,400  Descending FlightAware UK
01:54AM 51.7001 -2.3366 105° East 524 603 35,000 1,980 Climbing FlightAware ADS-B
01:54AM 51.6848 -2.2178 102° East 526 605 35,000 -1,800 Level FlightAware ADS-B
01:55AM 51.6633 -2.1414 102° East 464 534 33,500  Descending FlightAware UK
01:55AM 51.6722 -2.1005 102° East 527 606 35,000 -240 Climbing FlightAware ADS-B
01:55AM 51.6510 -2.0264 102° East 462 532 33,400  Descending FlightAware UK
01:55AM 51.6600 -1.9840 102° East 527 606 35,000  Climbing FlightAware ADS-B
01:56AM 51.6395 -1.9120 102° East 466 536 33,400  Descending FlightAware UK
01:56AM 51.6481 -1.8648 102° East 528 608 35,000 180 Climbing FlightAware ADS-B
01:56AM 51.6278 -1.7952 102° East 468 539 33,500  Descending FlightAware UK
01:56AM 51.6363 -1.7478 102° East 528 608 35,000  Climbing FlightAware ADS-B
01:57AM 51.6163 -1.6799 102° East 466 536 33,500  Descending FlightAware UK
01:57AM 51.6243 -1.6273 102° East 527 606 35,000 -240 Climbing FlightAware ADS-B
01:57AM 51.6046 -1.5640 102° East 464 534 33,400  Descending FlightAware UK
01:57AM 51.6123 -1.5088 102° East 528 608 35,000 180 Climbing FlightAware ADS-B
01:58AM 51.5930 -1.4490 102° East 464 534 33,500  Descending FlightAware UK
01:58AM 51.6005 -1.3917 102° East 528 608 35,000 180 Climbing FlightAware ADS-B
01:58AM 51.5812 -1.3340 102° East 466 536 33,600 1,200 Descending FlightAware UK
01:58AM 51.5884 -1.2760 102° East 521 600 35,600 3,180 Climbing FlightAware ADS-B
01:59AM 51.5766 -1.1616 99° East 508 585 36,000 360 Climbing FlightAware ADS-B
01:59AM 51.5649 -1.0509 100° East 497 572 36,000  Level FlightAware ADS-B
02:00AM 51.5533 -0.9421 100° East 497 572 36,000 -2,040 Level FlightAware ADS-B
02:00AM 51.5346 -0.8930 100° East 452 520 34,500  Descending FlightAware UK
02:00AM 51.5416 -0.8325 100° East 505 581 36,000 -240 Climbing FlightAware ADS-B
02:01AM 51.5228 -0.7834 100° East 460 529 34,400  Descending FlightAware UK
02:01AM 51.5294 -0.7208 100° East 511 588 36,000 2,580 Climbing FlightAware ADS-B
02:01AM 51.5205 -0.6392 100° East 514 592 36,000  Level FlightAware ADS-B
02:01AM 51.5143 -0.6003 104° East 512 589 36,000  Level FlightAware ADS-B
02:02AM 51.4892 -0.4864 109° East 515 593 36,000 -1,800 Level FlightAware ADS-B
02:02AM 51.4585 -0.4141 109° East 474 545 34,400  Descending FlightAware UK
02:02AM 51.4652 -0.3770 109° East 518 596 36,000  Climbing FlightAware ADS-B
02:03AM 51.4395 -0.3271 109° East 476 548 34,400  Descending FlightAware UK
02:03AM 51.4400 -0.2625 109° East 521 600 36,000  Climbing FlightAware ADS-B
02:03AM 51.4152 -0.2188 109° East 474 545 34,400  Descending FlightAware UK
02:04AM 51.4159 -0.1528 109° East 523 602 36,000  Climbing FlightAware ADS-B
02:04AM 51.3914 -0.1104 109° East 476 548 34,400  Descending FlightAware UK
02:04AM 51.3920 -0.0417 109° East 525 604 36,000 3,060 Climbing FlightAware ADS-B
02:04AM 51.3800 0.0166 108° East 526 605 36,000  Level FlightAware ADS-B
02:05AM 51.3620 0.1307 104° East 531 611 36,000  Level FlightAware ADS-B
02:05AM 51.3547 0.1932 101° East 533 613 36,000 -2,760 Level FlightAware ADS-B
02:05AM 51.3359 0.2505 101° East 478 550 34,400  Descending FlightAware UK
02:06AM 51.3435 0.3150 101° East 534 615 36,000 1,980 Climbing FlightAware ADS-B
02:06AM 51.3305 0.4529 99° East 532 612 36,000 -1,860 Level FlightAware ADS-B
02:06AM 51.3123 0.5056 99° East 478 550 34,400  Descending FlightAware UK
02:07AM 51.3191 0.5764 99° East 531 611 36,000 2,100 Climbing FlightAware ADS-B
02:07AM 51.3075 0.6967 99° East 528 608 36,000 -1,980 Level FlightAware ADS-B
02:07AM 51.2904 0.7359 99° East 476 548 34,500  Descending FlightAware UK
02:08AM 51.2958 0.8178 99° East 525 604 36,000 1,860 Climbing FlightAware ADS-B
02:08AM 51.2845 0.9356 99° East 522 601 36,000  Level FlightAware ADS-B
02:09AM 51.2733 1.0491 99° East 519 597 36,000 -1,860 Level FlightAware ADS-B
02:09AM 51.2552 1.0980 99° East 462 532 34,500  Descending FlightAware UK
02:09AM 51.2608 1.1785 99° East 515 593 36,000 -180 Climbing FlightAware ADS-B
02:10AM 51.2401 1.2547 99° East 458 527 34,400  Descending FlightAware UK
02:10AM 51.2460 1.3450 99° East 516 594 36,000  Climbing FlightAware
02:10AM 51.2319 1.3898 99° East 456 525 34,400 -2,520 Descending FlightAware UK
02:11AM 51.2275 1.4789 94° East 456 525 34,400 3,840 Level FlightAware UK
02:11AM 51.2380 1.5030 94° East 514 592 36,000  Climbing FlightAware
02:11AM 51.2244 1.5477 94° East 454 522 34,400 -2,760 Descending FlightAware UK
02:11AM 51.2213 1.6149 94° East 452 520 34,400 3,420 Level FlightAware UK
02:12AM 51.2310 1.6660 94° East 511 588 36,000  Climbing FlightAware
02:12AM 51.2148 1.7488 94° East 450 518 34,400  Descending FlightAware UK
02:12AM 51.2240 1.8020 94° East 509 586 36,000 120 Climbing FlightAware
02:13AM 51.2065 1.9049 94° East 450 518 34,500  Descending FlightAware UK
02:13AM 51.2150 1.9640 94° East 508 585 36,000  Climbing FlightAware
02:13AM 51.2011 2.0150 94° East 450 518 34,500  Descending FlightAware UK
02:13AM 51.2090 2.0890 95° East 508 585 36,000  Climbing FlightAware
02:13AM 51.1977 2.0822 95° East 448 516 34,500 -4,740 Descending FlightAware UK
02:14AM 51.1944 2.1486 95° East 448 516 34,500 2,040 Level FlightAware UK
02:14AM 51.1990 2.2650 95° East 507 583 36,000  Climbing FlightAware
02:14AM 51.1881 2.2584 95° East 448 516 34,500 -3,240 Descending FlightAware UK
02:15AM 51.1831 2.3477 95° East 446 513 34,500 1,920 Level FlightAware UK
02:15AM 51.1890 2.4480 95° East 507 583 36,000 -180 Climbing FlightAware
02:15AM 51.1734 2.5256 95° East 446 513 34,400  Descending FlightAware UK
02:16AM 51.1810 2.5990 95° East 508 585 36,000  Climbing FlightAware
02:16AM 51.1660 2.6587 95° East 446 513 34,400  Descending FlightAware UK
02:16AM 51.1720 2.7450 95° East 509 586 36,000  Climbing FlightAware
02:16AM 51.1622 2.7253 95° East 444 511 34,400 -2,640 Descending FlightAware UK
02:17AM 51.1546 2.8589 95° East 448 516 34,400 2,160 Level FlightAware UK
02:17AM 51.1620 2.9170 95° East 512 589 36,000  Climbing FlightAware
02:18AM 51.1449 3.0154 95° East 452 520 34,400  Descending FlightAware UK
02:18AM 51.1520 3.0620 95° East 509 586 36,000  Climbing FlightAware
02:18AM 51.1317 3.1255 95° East 458 527 34,400  Descending FlightAware UK
02:18AM 51.1360 3.2040 95° East 510 587 36,000  Climbing FlightAware
02:19AM 51.1168 3.2588 95° East 458 527 34,400  Descending FlightAware UK
02:19AM 51.1150 3.3850 95° East 512 589 36,000 -420 Climbing FlightAware
02:20AM 51.0930 3.4798 95° East 456 525 34,000 -780 Descending FlightAware UK
02:20AM 51.1010 3.5260 95° East 505 581 35,500 1,200 Climbing FlightAware
02:21AM 51.0860 3.6790 99° East 498 573 35,000 -1,920 Descending FlightAware
02:21AM 51.0679 3.7391 99° East 450 518 33,400  Descending FlightAware UK
02:21AM 51.0720 3.8230 99° East 494 568 35,000 1,620 Climbing FlightAware
02:22AM 51.0520 3.9680 102° East 490 564 35,000  Level FlightAware
02:23AM 51.0260 4.1250 105° East 491 565 35,000  Level FlightAware
02:23AM 51.0000 4.2730 106° East 493 567 35,000 -1,500 Level FlightAware
02:24AM 50.9756 4.3233 106° East 456 525 33,400  Descending FlightAware UK
02:24AM 50.9720 4.4280 106° East 495 570 35,000  Climbing FlightAware
02:24AM 50.9527 4.4490 106° East 456 525 33,400  Descending FlightAware UK
02:25AM 50.9460 4.5670 106° East 496 571 35,000 1,500 Climbing FlightAware
02:25AM 50.9210 4.7060 106° East 497 572 35,000 -1,500 Level FlightAware
02:26AM 50.8930 4.7605 106° East 458 527 33,400  Descending FlightAware UK
02:26AM 50.8900 4.8680 106° East 497 572 35,000 1,620 Climbing FlightAware
02:27AM 50.8680 4.9890 106° East 497 572 35,000  Level FlightAware
02:29AM 50.7686 5.2950 117° Southeast  Level Estimated
02:30AM 50.7073 5.4817 117° Southeast  Level Estimated
02:31AM 50.6458 5.6679 117° Southeast  Level Estimated
02:32AM 50.5839 5.8536 118° Southeast  Level Estimated
02:32AM 50.6470 6.1210 118° Southeast 487 560 35,000  Level FlightAware
02:33AM 50.6170 6.2730 107° East 487 560 35,000  Level FlightAware
02:34AM 50.5900 6.4070 108° East 487 560 35,000  Level FlightAware
02:34AM 50.5620 6.5410 108° East 489 563 35,000  Level FlightAware
02:35AM 50.5360 6.6710 107° East 490 564 35,000  Level FlightAware
02:36AM 50.5060 6.8130 108° East 489 563 35,000  Level FlightAware
02:37AM 50.4710 6.9820 108° East 495 570 35,000  Level FlightAware
02:37AM 50.4420 7.1200 108° East 497 572 35,000  Level FlightAware
02:38AM 50.4140 7.2530 108° East 499 574 35,000  Level FlightAware
02:39AM 50.3810 7.4080 108° East 501 577 35,000  Level FlightAware
02:39AM 50.3530 7.5400 108° East 504 580 35,000  Level FlightAware
02:40AM 50.3260 7.6640 109° East 504 580 35,000 -360 Level FlightAware
02:41AM 50.2890 7.8370 108° East 495 570 34,500 -1,020 Descending FlightAware
02:41AM 50.2580 7.9760 109° East 497 572 33,600 -1,140 Descending FlightAware
02:42AM 50.2310 8.1010 109° East 497 572 33,000 -480 Descending FlightAware
02:43AM 50.1950 8.2610 109° East 494 568 33,000  Level FlightAware
02:44AM 50.1620 8.4100 109° East 498 573 33,000  Level FlightAware
02:44AM 50.1330 8.5360 110° East 504 580 33,000  Level FlightAware
02:45AM 50.1000 8.6850 109° East 512 589 33,000  Level FlightAware
02:46AM 50.0550 8.8380 115° Southeast 493 567 33,000  Level FlightAware
02:46AM 49.9940 8.9370 134° Southeast 465 535 33,000  Level FlightAware
02:47AM 49.9300 9.0260 138° Southeast 459 528 33,000  Level FlightAware
02:48AM 49.8630 9.1160 139° Southeast 460 529 33,000  Level FlightAware
02:48AM 49.7970 9.2060 139° Southeast 465 535 33,000  Level FlightAware
02:49AM 49.7260 9.3170 135° Southeast 477 549 33,000  Level FlightAware
02:50AM 49.6680 9.4180 132° Southeast 477 549 33,000  Level FlightAware
02:50AM 49.6120 9.5120 133° Southeast 476 548 33,000  Level FlightAware
02:51AM 49.5490 9.6140 134° Southeast 473 544 33,000 -300 Level FlightAware
02:52AM 49.4890 9.7120 133° Southeast 469 540 32,600 -720 Descending FlightAware
02:53AM 49.4230 9.8180 134° Southeast 463 533 32,000 -1,500 Descending FlightAware
02:53AM 49.3610 9.9200 133° Southeast 450 518 30,500 -2,100 Descending FlightAware
02:54AM 49.3210 9.9830 134° Southeast 457 526 29,200 -2,640 Descending FlightAware
02:55AM 49.2400 10.1130 134° Southeast 444 511 26,800 -2,820 Descending FlightAware
02:55AM 49.2020 10.1730 134° Southeast 447 514 25,700 -1,440 Descending FlightAware
02:56AM 49.1390 10.2750 133° Southeast 421 484 25,000 -480 Descending FlightAware
02:57AM 49.0790 10.3690 134° Southeast 406 467 25,000  Level FlightAware
02:57AM 49.0240 10.4540 135° Southeast 414 476 25,000 -1,140 Level FlightAware
02:58AM 48.9640 10.5500 134° Southeast 399 459 23,400 -2,580 Descending FlightAware
02:59AM 48.9240 10.6130 134° Southeast 383 441 21,600 -2,040 Descending FlightAware
03:00AM 48.8580 10.7160 134° Southeast 381 438 20,200 -840 Descending FlightAware
03:00AM 48.8160 10.7810 134° Southeast 381 438 20,200 -3,600 Level FlightAware
03:01AM 48.7690 10.8520 135° Southeast 345 397 15,700 -3,900 Descending FlightAware
03:02AM 48.7150 10.9350 135° Southeast 345 397 15,000 -480 Descending FlightAware
03:03AM 48.6530 11.0210 137° Southeast 346 398 15,000 -480 Level FlightAware
03:03AM 48.5970 11.1060 135° Southeast 339 390 14,200 -900 Descending FlightAware
03:04AM 48.5830 11.1550 113° Southeast 336 387 14,000 -1,440 Descending FlightAware
03:04AM 48.5750 11.2440 98° East 349 402 12,800 -1,680 Descending FlightAware
03:05AM 48.5660 11.3400 98° East 348 400 11,800 -1,380 Descending FlightAware
03:06AM 48.5560 11.4630 97° East 331 381 10,900 -900 Descending FlightAware
03:07AM 48.5480 11.5480 98° East 315 362 10,600 -600 Descending FlightAware
03:07AM 48.5400 11.6470 97° East 304 350 10,100 -780 Descending FlightAware
03:08AM 48.5350 11.7010 98° East 301 346 9,700 -1,140 Descending FlightAware
03:08AM 48.5290 11.7610 99° East 297 342 9,100 -1,200 Descending FlightAware
03:09AM 48.5250 11.8150 96° East 292 336 8,600 -1,140 Descending FlightAware
03:09AM 48.5200 11.8720 98° East 287 330 8,100 -1,080 Descending FlightAware
03:09AM 48.5170 11.9020 99° East 285 328 7,800 -1,200 Descending FlightAware
03:10AM 48.5110 11.9630 98° East 284 327 7,200 -1,440 Descending FlightAware
03:10AM 48.5070 12.0110 97° East 275 316 6,500 -1,680 Descending FlightAware
03:11AM 48.4980 12.0360 119° Southeast 259 298 6,100 -1,620 Descending FlightAware
03:11AM 48.4850 12.0510 143° Southeast 247 284 5,700 -2,220 Descending FlightAware
03:11AM 48.4690 12.0670 146° Southeast 247 284 5,000 -2,400 Descending FlightAware
03:11AM 48.4440 12.0900 149° Southeast 251 289 4,100 -1,500 Descending FlightAware
03:12AM 48.4280 12.1000 157° South 234 269 4,000 -180 Descending FlightAware
03:12AM 48.4040 12.0890 197° South 211 243 4,000 -120 Level FlightAware
03:13AM 48.3880 12.0540 235° Southwest 200 230 3,900 -180 Descending FlightAware
03:13AM 48.3860 12.0330 262° West 203 234 3,900 -300 Level FlightAware
03:13AM 48.3840 11.9930 266° West 184 212 3,700 -660 Descending FlightAware
03:14AM 48.3810 11.9620 262° West 182 209 3,300 -1,020 Descending FlightAware
03:14AM 48.3780 11.9250 263° West 169 194 2,800 -1,020 Descending FlightAware
03:15AM 48.3760 11.8970 264° West 145 167 2,400 -780 Descending FlightAware
03:15AM 48.3740 11.8680 264° West 144 166 2,100 -720 Descending FlightAware
03:16AM 48.3710 11.8380 261° West 140 161 1,700 -780 Descending FlightAware
03:16AM 48.3690 11.8130 263° West 143 165 1,400 -720 Descending FlightAware